sensor_id;sensor_type;location;lat;lon;timestamp;temperature;humidity
84265;DHT22;74412;45.626;5.108;2023-12-20T00:01:57;3.32;83.97
84265;DHT22;74412;45.626;5.108;2023-12-20T00:04:24;3.36;84.05
84265;DHT22;74412;45.626;5.108;2023-12-20T00:06:50;3.35;84.15
84265;DHT22;74412;45.626;5.108;2023-12-20T00:09:17;3.38;84.09
84265;DHT22;74412;45.626;5.108;2023-12-20T00:11:45;3.40;84.11
84265;DHT22;74412;45.626;5.108;2023-12-20T00:14:12;3.40;84.04
84265;DHT22;74412;45.626;5.108;2023-12-20T00:16:38;3.42;84.07
84265;DHT22;74412;45.626;5.108;2023-12-20T00:19:05;3.42;84.09
84265;DHT22;74412;45.626;5.108;2023-12-20T00:21:33;3.43;84.09
84265;DHT22;74412;45.626;5.108;2023-12-20T00:23:59;3.45;84.03
84265;DHT22;74412;45.626;5.108;2023-12-20T00:26:26;3.48;84.13
84265;DHT22;74412;45.626;5.108;2023-12-20T00:28:54;3.49;84.17
84265;DHT22;74412;45.626;5.108;2023-12-20T00:31:21;3.52;84.19
84265;DHT22;74412;45.626;5.108;2023-12-20T00:33:50;3.52;84.27
84265;DHT22;74412;45.626;5.108;2023-12-20T00:36:17;3.53;84.25
84265;DHT22;74412;45.626;5.108;2023-12-20T00:38:43;3.56;84.24
84265;DHT22;74412;45.626;5.108;2023-12-20T00:41:10;3.58;84.20
84265;DHT22;74412;45.626;5.108;2023-12-20T00:43:37;3.59;84.18
84265;DHT22;74412;45.626;5.108;2023-12-20T00:46:05;3.59;84.21
84265;DHT22;74412;45.626;5.108;2023-12-20T00:48:31;3.60;84.17
84265;DHT22;74412;45.626;5.108;2023-12-20T00:50:58;3.62;84.08
84265;DHT22;74412;45.626;5.108;2023-12-20T00:53:24;3.65;84.10
84265;DHT22;74412;45.626;5.108;2023-12-20T00:55:51;3.67;84.13
84265;DHT22;74412;45.626;5.108;2023-12-20T00:58:17;3.67;84.04
84265;DHT22;74412;45.626;5.108;2023-12-20T01:00:44;3.69;84.03
84265;DHT22;74412;45.626;5.108;2023-12-20T01:03:12;3.69;84.10
84265;DHT22;74412;45.626;5.108;2023-12-20T01:05:39;3.70;84.07
84265;DHT22;74412;45.626;5.108;2023-12-20T01:08:06;3.70;84.09
84265;DHT22;74412;45.626;5.108;2023-12-20T01:10:32;3.72;84.02
84265;DHT22;74412;45.626;5.108;2023-12-20T01:12:59;3.72;84.09
84265;DHT22;74412;45.626;5.108;2023-12-20T01:15:26;3.73;84.16
84265;DHT22;74412;45.626;5.108;2023-12-20T01:17:52;3.70;84.21
84265;DHT22;74412;45.626;5.108;2023-12-20T01:20:20;3.72;84.26
84265;DHT22;74412;45.626;5.108;2023-12-20T01:22:47;3.69;84.29
84265;DHT22;74412;45.626;5.108;2023-12-20T01:25:13;3.73;84.36
84265;DHT22;74412;45.626;5.108;2023-12-20T01:27:40;3.73;84.41
84265;DHT22;74412;45.626;5.108;2023-12-20T01:30:07;3.76;84.43
84265;DHT22;74412;45.626;5.108;2023-12-20T01:32:34;3.79;84.55
84265;DHT22;74412;45.626;5.108;2023-12-20T01:35:01;3.79;84.64
84265;DHT22;74412;45.626;5.108;2023-12-20T01:37:29;3.83;84.70
84265;DHT22;74412;45.626;5.108;2023-12-20T01:39:55;3.83;84.56
84265;DHT22;74412;45.626;5.108;2023-12-20T01:42:22;3.86;84.42
84265;DHT22;74412;45.626;5.108;2023-12-20T01:44:49;3.85;84.44
84265;DHT22;74412;45.626;5.108;2023-12-20T01:47:15;3.89;84.51
84265;DHT22;74412;45.626;5.108;2023-12-20T01:49:43;3.87;84.47
84265;DHT22;74412;45.626;5.108;2023-12-20T01:52:10;3.89;84.47
84265;DHT22;74412;45.626;5.108;2023-12-20T01:54:38;3.91;84.50
84265;DHT22;74412;45.626;5.108;2023-12-20T01:57:06;3.91;84.52
84265;DHT22;74412;45.626;5.108;2023-12-20T01:59:33;3.90;84.45
84265;DHT22;74412;45.626;5.108;2023-12-20T02:02:01;3.90;84.48
84265;DHT22;74412;45.626;5.108;2023-12-20T02:04:29;3.93;84.45
84265;DHT22;74412;45.626;5.108;2023-12-20T02:06:56;3.94;84.40
84265;DHT22;74412;45.626;5.108;2023-12-20T02:09:23;3.93;84.34
84265;DHT22;74412;45.626;5.108;2023-12-20T02:11:51;3.93;84.33
84265;DHT22;74412;45.626;5.108;2023-12-20T02:14:18;3.93;84.43
84265;DHT22;74412;45.626;5.108;2023-12-20T02:16:45;3.93;84.32
84265;DHT22;74412;45.626;5.108;2023-12-20T02:19:14;3.91;84.36
84265;DHT22;74412;45.626;5.108;2023-12-20T02:21:42;3.91;84.33
84265;DHT22;74412;45.626;5.108;2023-12-20T02:24:08;3.93;84.25
84265;DHT22;74412;45.626;5.108;2023-12-20T02:26:35;3.93;84.24
84265;DHT22;74412;45.626;5.108;2023-12-20T02:29:02;3.93;84.26
84265;DHT22;74412;45.626;5.108;2023-12-20T02:31:28;3.94;84.14
84265;DHT22;74412;45.626;5.108;2023-12-20T02:33:55;3.94;84.11
84265;DHT22;74412;45.626;5.108;2023-12-20T02:36:22;3.94;84.14
84265;DHT22;74412;45.626;5.108;2023-12-20T02:38:50;3.93;84.13
84265;DHT22;74412;45.626;5.108;2023-12-20T02:41:16;3.94;84.12
84265;DHT22;74412;45.626;5.108;2023-12-20T02:43:43;3.93;84.30
84265;DHT22;74412;45.626;5.108;2023-12-20T02:46:10;3.96;84.27
84265;DHT22;74412;45.626;5.108;2023-12-20T02:48:36;3.96;84.28
84265;DHT22;74412;45.626;5.108;2023-12-20T02:51:03;3.98;84.33
84265;DHT22;74412;45.626;5.108;2023-12-20T02:53:30;3.96;84.28
84265;DHT22;74412;45.626;5.108;2023-12-20T02:55:58;3.98;84.32
84265;DHT22;74412;45.626;5.108;2023-12-20T02:58:24;4.01;84.34
84265;DHT22;74412;45.626;5.108;2023-12-20T03:00:51;4.03;84.35
84265;DHT22;74412;45.626;5.108;2023-12-20T03:03:18;4.00;84.37
84265;DHT22;74412;45.626;5.108;2023-12-20T03:05:45;4.06;84.26
84265;DHT22;74412;45.626;5.108;2023-12-20T03:08:12;4.07;84.30
84265;DHT22;74412;45.626;5.108;2023-12-20T03:10:39;4.03;84.43
84265;DHT22;74412;45.626;5.108;2023-12-20T03:13:07;4.07;84.36
84265;DHT22;74412;45.626;5.108;2023-12-20T03:15:33;4.07;84.46
84265;DHT22;74412;45.626;5.108;2023-12-20T03:18:00;4.11;84.43
84265;DHT22;74412;45.626;5.108;2023-12-20T03:20:27;4.10;84.50
84265;DHT22;74412;45.626;5.108;2023-12-20T03:22:53;4.11;84.53
84265;DHT22;74412;45.626;5.108;2023-12-20T03:25:20;4.16;84.86
84265;DHT22;74412;45.626;5.108;2023-12-20T03:27:46;4.16;84.76
84265;DHT22;74412;45.626;5.108;2023-12-20T03:30:14;4.20;84.99
84265;DHT22;74412;45.626;5.108;2023-12-20T03:32:41;4.20;84.99
84265;DHT22;74412;45.626;5.108;2023-12-20T03:35:08;4.21;85.11
84265;DHT22;74412;45.626;5.108;2023-12-20T03:37:35;4.22;84.91
84265;DHT22;74412;45.626;5.108;2023-12-20T03:40:02;4.27;84.97
84265;DHT22;74412;45.626;5.108;2023-12-20T03:42:29;4.30;85.00
84265;DHT22;74412;45.626;5.108;2023-12-20T03:44:55;4.30;84.97
84265;DHT22;74412;45.626;5.108;2023-12-20T03:47:23;4.33;85.18
84265;DHT22;74412;45.626;5.108;2023-12-20T03:49:50;4.33;85.24
84265;DHT22;74412;45.626;5.108;2023-12-20T03:52:16;4.34;85.29
84265;DHT22;74412;45.626;5.108;2023-12-20T03:54:43;4.36;85.06
84265;DHT22;74412;45.626;5.108;2023-12-20T03:57:11;4.36;85.10
84265;DHT22;74412;45.626;5.108;2023-12-20T03:59:38;4.38;84.95
84265;DHT22;74412;45.626;5.108;2023-12-20T04:02:05;4.36;85.14
84265;DHT22;74412;45.626;5.108;2023-12-20T04:04:33;4.36;85.19
84265;DHT22;74412;45.626;5.108;2023-12-20T04:06:59;4.38;85.21
84265;DHT22;74412;45.626;5.108;2023-12-20T04:09:26;4.42;85.13
84265;DHT22;74412;45.626;5.108;2023-12-20T04:11:52;4.41;84.92
84265;DHT22;74412;45.626;5.108;2023-12-20T04:14:19;4.44;84.93
84265;DHT22;74412;45.626;5.108;2023-12-20T04:16:46;4.44;84.80
84265;DHT22;74412;45.626;5.108;2023-12-20T04:19:12;4.44;84.90
84265;DHT22;74412;45.626;5.108;2023-12-20T04:21:40;4.47;84.81
84265;DHT22;74412;45.626;5.108;2023-12-20T04:24:07;4.48;84.72
84265;DHT22;74412;45.626;5.108;2023-12-20T04:26:33;4.47;84.71
84265;DHT22;74412;45.626;5.108;2023-12-20T04:29:00;4.48;84.73
84265;DHT22;74412;45.626;5.108;2023-12-20T04:31:27;4.50;84.74
84265;DHT22;74412;45.626;5.108;2023-12-20T04:33:53;4.51;84.66
84265;DHT22;74412;45.626;5.108;2023-12-20T04:36:20;4.52;84.70
84265;DHT22;74412;45.626;5.108;2023-12-20T04:38:48;4.52;84.74
84265;DHT22;74412;45.626;5.108;2023-12-20T04:41:15;4.52;84.77
84265;DHT22;74412;45.626;5.108;2023-12-20T04:43:44;4.52;84.62
84265;DHT22;74412;45.626;5.108;2023-12-20T04:46:10;4.54;84.66
84265;DHT22;74412;45.626;5.108;2023-12-20T04:48:37;4.54;84.57
84265;DHT22;74412;45.626;5.108;2023-12-20T04:51:04;4.52;84.63
84265;DHT22;74412;45.626;5.108;2023-12-20T04:53:31;4.52;84.65
84265;DHT22;74412;45.626;5.108;2023-12-20T04:55:59;4.51;84.78
84265;DHT22;74412;45.626;5.108;2023-12-20T04:58:26;4.51;84.68
84265;DHT22;74412;45.626;5.108;2023-12-20T05:00:52;4.54;84.76
84265;DHT22;74412;45.626;5.108;2023-12-20T05:03:19;4.52;84.72
84265;DHT22;74412;45.626;5.108;2023-12-20T05:05:46;4.52;84.72
84265;DHT22;74412;45.626;5.108;2023-12-20T05:08:12;4.51;84.82
84265;DHT22;74412;45.626;5.108;2023-12-20T05:10:39;4.52;84.75
84265;DHT22;74412;45.626;5.108;2023-12-20T05:13:08;4.52;84.67
84265;DHT22;74412;45.626;5.108;2023-12-20T05:15:34;4.50;84.62
84265;DHT22;74412;45.626;5.108;2023-12-20T05:18:01;4.50;84.48
84265;DHT22;74412;45.626;5.108;2023-12-20T05:20:28;4.47;84.57
84265;DHT22;74412;45.626;5.108;2023-12-20T05:22:54;4.44;84.70
84265;DHT22;74412;45.626;5.108;2023-12-20T05:25:21;4.44;84.65
84265;DHT22;74412;45.626;5.108;2023-12-20T05:27:47;4.41;84.71
84265;DHT22;74412;45.626;5.108;2023-12-20T05:30:16;4.41;84.73
84265;DHT22;74412;45.626;5.108;2023-12-20T05:32:42;4.40;84.72
84265;DHT22;74412;45.626;5.108;2023-12-20T05:35:09;4.38;84.79
84265;DHT22;74412;45.626;5.108;2023-12-20T05:37:36;4.36;84.78
84265;DHT22;74412;45.626;5.108;2023-12-20T05:40:03;4.33;84.85
84265;DHT22;74412;45.626;5.108;2023-12-20T05:42:29;4.33;85.06
84265;DHT22;74412;45.626;5.108;2023-12-20T05:44:56;4.28;85.09
84265;DHT22;74412;45.626;5.108;2023-12-20T05:47:24;4.33;85.10
84265;DHT22;74412;45.626;5.108;2023-12-20T05:49:50;4.34;85.02
84265;DHT22;74412;45.626;5.108;2023-12-20T05:52:17;4.34;85.08
84265;DHT22;74412;45.626;5.108;2023-12-20T05:54:44;4.37;84.91
84265;DHT22;74412;45.626;5.108;2023-12-20T05:57:10;4.38;84.88
84265;DHT22;74412;45.626;5.108;2023-12-20T05:59:37;4.40;84.88
84265;DHT22;74412;45.626;5.108;2023-12-20T06:02:04;4.40;84.81
84265;DHT22;74412;45.626;5.108;2023-12-20T06:04:32;4.40;84.80
84265;DHT22;74412;45.626;5.108;2023-12-20T06:06:59;4.41;84.83
84265;DHT22;74412;45.626;5.108;2023-12-20T06:09:26;4.42;84.87
84265;DHT22;74412;45.626;5.108;2023-12-20T06:11:53;4.40;84.89
84265;DHT22;74412;45.626;5.108;2023-12-20T06:14:20;4.42;84.95
84265;DHT22;74412;45.626;5.108;2023-12-20T06:16:46;4.42;84.96
84265;DHT22;74412;45.626;5.108;2023-12-20T06:19:13;4.44;84.95
84265;DHT22;74412;45.626;5.108;2023-12-20T06:21:41;4.45;84.92
84265;DHT22;74412;45.626;5.108;2023-12-20T06:24:08;4.44;84.83
84265;DHT22;74412;45.626;5.108;2023-12-20T06:26:35;4.44;84.73
84265;DHT22;74412;45.626;5.108;2023-12-20T06:29:01;4.45;84.72
84265;DHT22;74412;45.626;5.108;2023-12-20T06:31:28;4.44;84.72
84265;DHT22;74412;45.626;5.108;2023-12-20T06:33:54;4.42;84.87
84265;DHT22;74412;45.626;5.108;2023-12-20T06:36:23;4.44;84.84
84265;DHT22;74412;45.626;5.108;2023-12-20T06:38:51;4.42;84.81
84265;DHT22;74412;45.626;5.108;2023-12-20T06:41:18;4.42;84.81
84265;DHT22;74412;45.626;5.108;2023-12-20T06:43:44;4.42;84.76
84265;DHT22;74412;45.626;5.108;2023-12-20T06:46:11;4.42;84.78
84265;DHT22;74412;45.626;5.108;2023-12-20T06:48:38;4.44;84.88
84265;DHT22;74412;45.626;5.108;2023-12-20T06:51:05;4.45;84.92
84265;DHT22;74412;45.626;5.108;2023-12-20T06:53:32;4.45;84.86
84265;DHT22;74412;45.626;5.108;2023-12-20T06:56:00;4.45;84.82
84265;DHT22;74412;45.626;5.108;2023-12-20T06:58:26;4.45;84.80
84265;DHT22;74412;45.626;5.108;2023-12-20T07:00:53;4.45;84.88
84265;DHT22;74412;45.626;5.108;2023-12-20T07:03:20;4.44;84.87
84265;DHT22;74412;45.626;5.108;2023-12-20T07:05:46;4.44;84.96
84265;DHT22;74412;45.626;5.108;2023-12-20T07:08:13;4.47;84.91
84265;DHT22;74412;45.626;5.108;2023-12-20T07:10:41;4.45;85.00
84265;DHT22;74412;45.626;5.108;2023-12-20T07:13:09;4.48;85.02
84265;DHT22;74412;45.626;5.108;2023-12-20T07:15:36;4.48;85.01
84265;DHT22;74412;45.626;5.108;2023-12-20T07:18:05;4.50;85.02
84265;DHT22;74412;45.626;5.108;2023-12-20T07:20:32;4.51;85.09
84265;DHT22;74412;45.626;5.108;2023-12-20T07:22:59;4.52;85.15
84265;DHT22;74412;45.626;5.108;2023-12-20T07:25:26;4.55;85.08
84265;DHT22;74412;45.626;5.108;2023-12-20T07:27:56;4.57;85.09
84265;DHT22;74412;45.626;5.108;2023-12-20T07:30:24;4.57;85.00
84265;DHT22;74412;45.626;5.108;2023-12-20T07:32:51;4.54;85.10
84265;DHT22;74412;45.626;5.108;2023-12-20T07:35:18;4.57;84.96
84265;DHT22;74412;45.626;5.108;2023-12-20T07:37:44;4.54;85.05
84265;DHT22;74412;45.626;5.108;2023-12-20T07:40:11;4.58;85.11
84265;DHT22;74412;45.626;5.108;2023-12-20T07:42:38;4.57;85.07
84265;DHT22;74412;45.626;5.108;2023-12-20T07:45:05;4.58;85.04
84265;DHT22;74412;45.626;5.108;2023-12-20T07:47:33;4.60;85.07
84265;DHT22;74412;45.626;5.108;2023-12-20T07:50:00;4.58;85.13
84265;DHT22;74412;45.626;5.108;2023-12-20T07:52:28;4.60;85.13
84265;DHT22;74412;45.626;5.108;2023-12-20T07:54:55;4.62;85.12
84265;DHT22;74412;45.626;5.108;2023-12-20T07:57:22;4.57;85.22
84265;DHT22;74412;45.626;5.108;2023-12-20T07:59:48;4.60;85.20
84265;DHT22;74412;45.626;5.108;2023-12-20T08:02:15;4.60;85.31
84265;DHT22;74412;45.626;5.108;2023-12-20T08:04:43;4.57;85.34
84265;DHT22;74412;45.626;5.108;2023-12-20T08:07:09;4.58;85.36
84265;DHT22;74412;45.626;5.108;2023-12-20T08:09:36;4.55;85.56
84265;DHT22;74412;45.626;5.108;2023-12-20T08:12:03;4.54;85.82
84265;DHT22;74412;45.626;5.108;2023-12-20T08:14:30;4.55;86.16
84265;DHT22;74412;45.626;5.108;2023-12-20T08:16:56;4.57;86.27
84265;DHT22;74412;45.626;5.108;2023-12-20T08:19:23;4.57;86.39
84265;DHT22;74412;45.626;5.108;2023-12-20T08:21:51;4.61;86.49
84265;DHT22;74412;45.626;5.108;2023-12-20T08:24:18;4.61;86.32
84265;DHT22;74412;45.626;5.108;2023-12-20T08:26:44;4.60;86.38
84265;DHT22;74412;45.626;5.108;2023-12-20T08:29:12;4.61;86.41
84265;DHT22;74412;45.626;5.108;2023-12-20T08:31:39;4.62;86.51
84265;DHT22;74412;45.626;5.108;2023-12-20T08:34:06;4.62;86.61
84265;DHT22;74412;45.626;5.108;2023-12-20T08:36:32;4.62;86.66
84265;DHT22;74412;45.626;5.108;2023-12-20T08:39:00;4.65;86.97
84265;DHT22;74412;45.626;5.108;2023-12-20T08:41:28;4.67;87.04
84265;DHT22;74412;45.626;5.108;2023-12-20T08:43:55;4.69;87.27
84265;DHT22;74412;45.626;5.108;2023-12-20T08:46:22;4.76;87.27
84265;DHT22;74412;45.626;5.108;2023-12-20T08:48:48;4.82;87.26
84265;DHT22;74412;45.626;5.108;2023-12-20T08:51:15;4.83;87.34
84265;DHT22;74412;45.626;5.108;2023-12-20T08:53:41;4.86;87.48
84265;DHT22;74412;45.626;5.108;2023-12-20T08:56:12;4.93;87.41
84265;DHT22;74412;45.626;5.108;2023-12-20T08:58:39;4.97;87.47
84265;DHT22;74412;45.626;5.108;2023-12-20T09:01:06;5.03;87.34
84265;DHT22;74412;45.626;5.108;2023-12-20T09:03:33;5.06;87.30
84265;DHT22;74412;45.626;5.108;2023-12-20T09:05:59;5.11;87.49
84265;DHT22;74412;45.626;5.108;2023-12-20T09:08:26;5.13;87.60
84265;DHT22;74412;45.626;5.108;2023-12-20T09:10:53;5.12;87.61
84265;DHT22;74412;45.626;5.108;2023-12-20T09:13:21;5.19;87.58
84265;DHT22;74412;45.626;5.108;2023-12-20T09:15:52;5.22;87.19
84265;DHT22;74412;45.626;5.108;2023-12-20T09:18:18;5.22;87.48
84265;DHT22;74412;45.626;5.108;2023-12-20T09:20:45;5.23;87.46
84265;DHT22;74412;45.626;5.108;2023-12-20T09:23:12;5.22;87.56
84265;DHT22;74412;45.626;5.108;2023-12-20T09:25:38;5.27;87.62
84265;DHT22;74412;45.626;5.108;2023-12-20T09:28:05;5.27;87.64
84265;DHT22;74412;45.626;5.108;2023-12-20T09:30:33;5.30;87.65
84265;DHT22;74412;45.626;5.108;2023-12-20T09:33:00;5.35;87.68
84265;DHT22;74412;45.626;5.108;2023-12-20T09:35:30;5.36;87.63
84265;DHT22;74412;45.626;5.108;2023-12-20T09:37:56;5.37;87.48
84265;DHT22;74412;45.626;5.108;2023-12-20T09:40:26;5.37;87.42
84265;DHT22;74412;45.626;5.108;2023-12-20T09:42:56;5.39;87.57
84265;DHT22;74412;45.626;5.108;2023-12-20T09:45:23;5.40;87.63
84265;DHT22;74412;45.626;5.108;2023-12-20T09:47:53;5.43;87.55
84265;DHT22;74412;45.626;5.108;2023-12-20T09:50:20;5.47;87.55
84265;DHT22;74412;45.626;5.108;2023-12-20T09:52:49;5.47;87.43
84265;DHT22;74412;45.626;5.108;2023-12-20T09:55:17;5.53;87.41
84265;DHT22;74412;45.626;5.108;2023-12-20T09:57:44;5.53;87.35
84265;DHT22;74412;45.626;5.108;2023-12-20T10:00:12;5.60;87.39
84265;DHT22;74412;45.626;5.108;2023-12-20T10:02:42;5.60;87.41
84265;DHT22;74412;45.626;5.108;2023-12-20T10:05:16;5.63;87.43
84265;DHT22;74412;45.626;5.108;2023-12-20T10:07:44;5.67;87.62
84265;DHT22;74412;45.626;5.108;2023-12-20T10:10:12;5.67;87.68
84265;DHT22;74412;45.626;5.108;2023-12-20T10:12:39;5.75;87.79
84265;DHT22;74412;45.626;5.108;2023-12-20T10:15:09;5.83;87.78
84265;DHT22;74412;45.626;5.108;2023-12-20T10:17:36;5.87;87.82
84265;DHT22;74412;45.626;5.108;2023-12-20T10:20:04;5.91;87.94
84265;DHT22;74412;45.626;5.108;2023-12-20T10:22:36;5.98;87.98
84265;DHT22;74412;45.626;5.108;2023-12-20T10:25:04;6.01;88.18
84265;DHT22;74412;45.626;5.108;2023-12-20T10:27:31;6.07;88.25
84265;DHT22;74412;45.626;5.108;2023-12-20T10:29:58;6.17;88.18
84265;DHT22;74412;45.626;5.108;2023-12-20T10:32:26;6.22;88.09
84265;DHT22;74412;45.626;5.108;2023-12-20T10:34:54;6.26;88.10
84265;DHT22;74412;45.626;5.108;2023-12-20T10:37:21;6.32;87.76
84265;DHT22;74412;45.626;5.108;2023-12-20T10:39:51;6.32;87.68
84265;DHT22;74412;45.626;5.108;2023-12-20T10:42:21;6.36;87.78
84265;DHT22;74412;45.626;5.108;2023-12-20T10:44:49;6.38;87.70
84265;DHT22;74412;45.626;5.108;2023-12-20T10:47:16;6.41;87.81
84265;DHT22;74412;45.626;5.108;2023-12-20T10:49:43;6.41;87.84
84265;DHT22;74412;45.626;5.108;2023-12-20T10:52:11;6.45;87.70
84265;DHT22;74412;45.626;5.108;2023-12-20T10:54:39;6.46;87.76
84265;DHT22;74412;45.626;5.108;2023-12-20T10:57:08;6.50;87.82
84265;DHT22;74412;45.626;5.108;2023-12-20T10:59:36;6.52;87.70
84265;DHT22;74412;45.626;5.108;2023-12-20T11:02:04;6.50;87.87
84265;DHT22;74412;45.626;5.108;2023-12-20T11:04:36;6.53;87.74
84265;DHT22;74412;45.626;5.108;2023-12-20T11:07:10;6.53;87.86
84265;DHT22;74412;45.626;5.108;2023-12-20T11:09:46;6.56;87.96
84265;DHT22;74412;45.626;5.108;2023-12-20T11:12:20;6.62;88.26
84265;DHT22;74412;45.626;5.108;2023-12-20T11:14:53;6.63;87.96
84265;DHT22;74412;45.626;5.108;2023-12-20T11:17:21;6.65;88.15
84265;DHT22;74412;45.626;5.108;2023-12-20T11:20:09;6.71;88.23
84265;DHT22;74412;45.626;5.108;2023-12-20T11:22:39;6.72;88.35
84265;DHT22;74412;45.626;5.108;2023-12-20T11:25:17;6.76;88.28
84265;DHT22;74412;45.626;5.108;2023-12-20T11:28:09;6.80;88.08
84265;DHT22;74412;45.626;5.108;2023-12-20T11:30:45;6.83;87.88
84265;DHT22;74412;45.626;5.108;2023-12-20T11:33:13;6.89;87.89
84265;DHT22;74412;45.626;5.108;2023-12-20T11:35:40;6.93;87.65
84265;DHT22;74412;45.626;5.108;2023-12-20T11:38:08;7.03;87.62
84265;DHT22;74412;45.626;5.108;2023-12-20T11:40:35;7.08;87.23
84265;DHT22;74412;45.626;5.108;2023-12-20T11:43:03;7.14;87.21
84265;DHT22;74412;45.626;5.108;2023-12-20T11:45:30;7.18;86.88
84265;DHT22;74412;45.626;5.108;2023-12-20T11:47:57;7.23;86.74
84265;DHT22;74412;45.626;5.108;2023-12-20T11:50:24;7.26;86.81
84265;DHT22;74412;45.626;5.108;2023-12-20T11:52:52;7.31;85.98
84265;DHT22;74412;45.626;5.108;2023-12-20T11:55:19;7.32;85.19
84265;DHT22;74412;45.626;5.108;2023-12-20T11:57:46;7.35;85.18
84265;DHT22;74412;45.626;5.108;2023-12-20T12:00:15;7.38;85.13
84265;DHT22;74412;45.626;5.108;2023-12-20T12:02:41;7.43;84.47
84265;DHT22;74412;45.626;5.108;2023-12-20T12:05:08;7.40;84.36
84265;DHT22;74412;45.626;5.108;2023-12-20T12:07:35;7.43;83.84
84265;DHT22;74412;45.626;5.108;2023-12-20T12:10:03;7.44;84.25
84265;DHT22;74412;45.626;5.108;2023-12-20T12:12:29;7.43;83.69
84265;DHT22;74412;45.626;5.108;2023-12-20T12:14:58;7.40;82.91
84265;DHT22;74412;45.626;5.108;2023-12-20T12:17:26;7.41;82.70
84265;DHT22;74412;45.626;5.108;2023-12-20T12:20:02;7.38;82.40
84265;DHT22;74412;45.626;5.108;2023-12-20T12:22:29;7.37;82.60
84265;DHT22;74412;45.626;5.108;2023-12-20T12:24:59;7.38;83.04
84265;DHT22;74412;45.626;5.108;2023-12-20T12:27:35;7.40;82.97
84265;DHT22;74412;45.626;5.108;2023-12-20T12:30:05;7.40;82.86
84265;DHT22;74412;45.626;5.108;2023-12-20T12:32:34;7.38;82.91
84265;DHT22;74412;45.626;5.108;2023-12-20T12:35:03;7.41;82.94
84265;DHT22;74412;45.626;5.108;2023-12-20T12:37:31;7.44;82.20
84265;DHT22;74412;45.626;5.108;2023-12-20T12:39:59;7.46;81.48
84265;DHT22;74412;45.626;5.108;2023-12-20T12:42:26;7.43;80.62
84265;DHT22;74412;45.626;5.108;2023-12-20T12:44:54;7.47;80.50
84265;DHT22;74412;45.626;5.108;2023-12-20T12:47:21;7.47;80.25
84265;DHT22;74412;45.626;5.108;2023-12-20T12:49:49;7.48;79.65
84265;DHT22;74412;45.626;5.108;2023-12-20T12:52:17;7.50;79.88
84265;DHT22;74412;45.626;5.108;2023-12-20T12:54:43;7.46;80.18
84265;DHT22;74412;45.626;5.108;2023-12-20T12:57:10;7.44;80.31
84265;DHT22;74412;45.626;5.108;2023-12-20T12:59:37;7.43;80.32
84265;DHT22;74412;45.626;5.108;2023-12-20T13:02:04;7.38;80.37
84265;DHT22;74412;45.626;5.108;2023-12-20T13:04:30;7.38;80.57
84265;DHT22;74412;45.626;5.108;2023-12-20T13:06:58;7.40;80.81
84265;DHT22;74412;45.626;5.108;2023-12-20T13:09:25;7.41;81.22
84265;DHT22;74412;45.626;5.108;2023-12-20T13:11:52;7.47;81.03
84265;DHT22;74412;45.626;5.108;2023-12-20T13:14:18;7.48;81.23
84265;DHT22;74412;45.626;5.108;2023-12-20T13:16:45;7.52;81.08
84265;DHT22;74412;45.626;5.108;2023-12-20T13:19:11;7.58;81.11
84265;DHT22;74412;45.626;5.108;2023-12-20T13:21:38;7.64;80.79
84265;DHT22;74412;45.626;5.108;2023-12-20T13:24:06;7.68;80.15
84265;DHT22;74412;45.626;5.108;2023-12-20T13:26:33;7.71;79.65
84265;DHT22;74412;45.626;5.108;2023-12-20T13:29:00;7.74;79.46
84265;DHT22;74412;45.626;5.108;2023-12-20T13:31:26;7.74;79.27
84265;DHT22;74412;45.626;5.108;2023-12-20T13:33:53;7.77;78.79
84265;DHT22;74412;45.626;5.108;2023-12-20T13:36:20;7.75;78.47
84265;DHT22;74412;45.626;5.108;2023-12-20T13:38:47;7.74;78.00
84265;DHT22;74412;45.626;5.108;2023-12-20T13:41:14;7.71;78.05
84265;DHT22;74412;45.626;5.108;2023-12-20T13:43:41;7.67;78.90
84265;DHT22;74412;45.626;5.108;2023-12-20T13:46:08;7.62;78.64
84265;DHT22;74412;45.626;5.108;2023-12-20T13:48:34;7.57;78.58
84265;DHT22;74412;45.626;5.108;2023-12-20T13:51:01;7.54;78.72
84265;DHT22;74412;45.626;5.108;2023-12-20T13:53:28;7.48;79.22
84265;DHT22;74412;45.626;5.108;2023-12-20T13:55:55;7.44;79.56
84265;DHT22;74412;45.626;5.108;2023-12-20T13:58:24;7.44;79.92
84265;DHT22;74412;45.626;5.108;2023-12-20T14:00:51;7.40;79.69
84265;DHT22;74412;45.626;5.108;2023-12-20T14:03:17;7.37;79.81
84265;DHT22;74412;45.626;5.108;2023-12-20T14:05:45;7.37;79.97
84265;DHT22;74412;45.626;5.108;2023-12-20T14:08:11;7.32;79.56
84265;DHT22;74412;45.626;5.108;2023-12-20T14:10:38;7.31;79.75
84265;DHT22;74412;45.626;5.108;2023-12-20T14:13:04;7.31;80.17
84265;DHT22;74412;45.626;5.108;2023-12-20T14:15:32;7.32;80.05
84265;DHT22;74412;45.626;5.108;2023-12-20T14:18:03;7.32;79.58
84265;DHT22;74412;45.626;5.108;2023-12-20T14:20:30;7.34;78.05
84265;DHT22;74412;45.626;5.108;2023-12-20T14:22:56;7.27;78.00
84265;DHT22;74412;45.626;5.108;2023-12-20T14:25:23;7.23;78.06
84265;DHT22;74412;45.626;5.108;2023-12-20T14:27:49;7.21;77.27
84265;DHT22;74412;45.626;5.108;2023-12-20T14:30:16;7.17;77.46
84265;DHT22;74412;45.626;5.108;2023-12-20T14:32:44;7.13;77.69
84265;DHT22;74412;45.626;5.108;2023-12-20T14:35:11;7.14;77.80
84265;DHT22;74412;45.626;5.108;2023-12-20T14:37:37;7.10;78.10
84265;DHT22;74412;45.626;5.108;2023-12-20T14:40:06;7.07;78.44
84265;DHT22;74412;45.626;5.108;2023-12-20T14:42:35;7.04;78.32
84265;DHT22;74412;45.626;5.108;2023-12-20T14:45:02;7.07;78.66
84265;DHT22;74412;45.626;5.108;2023-12-20T14:47:29;7.04;78.83
84265;DHT22;74412;45.626;5.108;2023-12-20T14:49:57;7.04;79.08
84265;DHT22;74412;45.626;5.108;2023-12-20T14:52:24;7.03;79.19
84265;DHT22;74412;45.626;5.108;2023-12-20T14:54:50;7.00;79.32
84265;DHT22;74412;45.626;5.108;2023-12-20T14:57:17;6.99;79.54
84265;DHT22;74412;45.626;5.108;2023-12-20T14:59:44;7.00;79.75
84265;DHT22;74412;45.626;5.108;2023-12-20T15:02:10;7.00;79.85
84265;DHT22;74412;45.626;5.108;2023-12-20T15:04:37;7.01;79.77
84265;DHT22;74412;45.626;5.108;2023-12-20T15:07:05;7.00;79.87
84265;DHT22;74412;45.626;5.108;2023-12-20T15:09:32;6.99;80.03
84265;DHT22;74412;45.626;5.108;2023-12-20T15:11:58;7.01;79.92
84265;DHT22;74412;45.626;5.108;2023-12-20T15:14:25;6.99;80.02
84265;DHT22;74412;45.626;5.108;2023-12-20T15:16:53;6.99;79.85
84265;DHT22;74412;45.626;5.108;2023-12-20T15:19:21;6.96;80.11
84265;DHT22;74412;45.626;5.108;2023-12-20T15:21:47;6.92;79.94
84265;DHT22;74412;45.626;5.108;2023-12-20T15:24:22;6.93;79.95
84265;DHT22;74412;45.626;5.108;2023-12-20T15:26:54;6.93;80.00
84265;DHT22;74412;45.626;5.108;2023-12-20T15:29:21;6.92;79.99
84265;DHT22;74412;45.626;5.108;2023-12-20T15:31:48;6.93;79.91
84265;DHT22;74412;45.626;5.108;2023-12-20T15:34:15;6.90;79.98
84265;DHT22;74412;45.626;5.108;2023-12-20T15:36:42;6.92;80.10
84265;DHT22;74412;45.626;5.108;2023-12-20T15:39:09;6.93;80.03
84265;DHT22;74412;45.626;5.108;2023-12-20T15:41:43;6.94;80.07
84265;DHT22;74412;45.626;5.108;2023-12-20T15:44:09;6.96;80.01
84265;DHT22;74412;45.626;5.108;2023-12-20T15:46:36;6.94;80.04